Paducah, KY

4:18 PM CST on February 26, 2017 (GMT -0600)
Heath | | Change Station

Elev 395 ft 37.07 °N, 88.81 °W | Updated 30 seconds ago

Mostly Cloudy
Mostly Cloudy
52.9 °F
Feels Like 52.9 °F
N
0.0
Wind Variable Wind from North
Gusts 0.0 mph

Today
High -- | Low -- °F
--% Chance of Precip.
Yesterday
High -- | Low -- °F
Precip. -- in
Pressure 30.12 in
Visibility 10.0 miles
Clouds Scattered Clouds 9500 ft
Mostly Cloudy 12000 ft
Dew Point 18 °F
Humidity 25%
Rainfall 0.00 in
Snow Depth Not available.
6:29 AM 5:46 PM
New Moon, 0% visible
METAR KPAH 262153Z 14003KT 10SM SCT095 BKN120 12/M08 A3011 RMK AO2 SLP198 T01171078
Pressure 30.12 in
Visibility 10.0 miles
Clouds Scattered Clouds 9500 ft
Mostly Cloudy 12000 ft
Dew Point 18 °F
Humidity 25%
Rainfall 0.00 in
Snow Depth Not available.
6:29 AM 5:46 PM
New Moon, 0% visible
METAR KPAH 262153Z 14003KT 10SM SCT095 BKN120 12/M08 A3011 RMK AO2 SLP198 T01171078

Get Your Daily Forecast Email!

Thanks for signing up!

Be on the lookout for a verification email in your inbox.

You'll start receiving the daily forecast at 8 AM.

×

10-Day Weather Forecast

Almanac

Astronomy

Feb. 26, 2017 Rise Set
Actual Time
Civil Twilight
Nautical Twilight
Astronomical Twilight
Moon
Length of Visible Light
Length of Day
Tomorrow will be .
, % of the Moon is Illuminated

Today's Extremes

State Highs State Lows

Community

WunderPhotos

Upload Photos

1,962,540 photos uploaded!

WunderBlog® & News

Nearby

Air Quality

  Air Quality AQ Index Pollutant
Not available.

Snow Depth

Station Depth Elevation

Earthquake Activity

City Distance Mag. Time & Date
Minimum magnitude displayed is 2.5.

Coastal Water Temperatures

Place Temperature

Stations

Nearby Weather Stations

Station Location Temp. Windchill Dew Point Humidity Wind Precip. Elev Updated Type
                   

Watches & Warnings

There are currently no watches in effect.